Gabriella — OJHP — position and weather

sailwx.info

Track history (hours):
 
Tides and Currents Weather Stations Pressure Air Temp Water Temp Dewpoint Dewpoint Depression Visibility Wind Speed Wind Dir Waves Ship Positions

Gabriella

Last reported at 2016-Dec-11 13:32 UTC. Time now 2016-Dec-11 14:05 UTC.
Position N 60°10' E 024°58'.

Length 172 m; draft 6.5 m.

Type: Ship (hazmat cat A). MMSI: 230361000.

Date/timePositionNaut miles runAvg speedWind from/ knotsBaromVisibWave heightAir tempDewpointWater temp
2016-Dec-11 13:32N 60°10' E 024°58'0 0.0
2016-Dec-11 12:32N 60°10' E 024°58'0 0.0
2016-Dec-11 11:32N 60°10' E 024°58'0 0.0
2016-Dec-11 10:32N 60°10' E 024°58'0 0.0
2016-Dec-11 09:32N 60°10' E 024°58'0 0.0
2016-Dec-11 08:26N 60°10' E 024°58'6 6.9
2016-Dec-11 07:33N 60°04' E 024°58'2216.8
2016-Dec-11 06:15N 59°51' E 024°23'1217.9
2016-Dec-11 05:33N 59°47' E 023°59'1817.8
2016-Dec-11 04:33N 59°42' E 023°25'3617.9
2016-Dec-11 02:32N 59°34' E 022°15'1717.7
2016-Dec-11 01:33N 59°32' E 021°42'9911.9
2016-Dec-10 17:14N 59°28' E 018°26'7 9.7
2016-Dec-10 16:33N 59°22' E 018°27'1010.2
2016-Dec-10 15:34N 59°19' E 018°08'1 0.9
2016-Dec-10 14:33N 59°19' E 018°06'0 0.0
2016-Dec-10 13:33N 59°19' E 018°06'0 0.0
2016-Dec-10 12:33N 59°19' E 018°06'0 0.0
2016-Dec-10 11:33N 59°19' E 018°06'0 0.0
2016-Dec-10 10:33N 59°19' E 018°06'0 0.0
2016-Dec-10 09:33N 59°19' E 018°06'2 2.1
2016-Dec-10 08:33N 59°19' E 018°10'10 9.1
2016-Dec-10 07:30N 59°24' E 018°27'9310.4
2016-Dec-09 22:33N 59°34' E 021°29'5717.2
2016-Dec-09 19:13N 59°41' E 023°21'1217.4
2016-Dec-09 18:33N 59°44' E 023°43'3517.3
2016-Dec-09 16:33N 59°57' E 024°47'1414.0
2016-Dec-09 15:34N 60°10' E 024°58'0 0.1
2016-Dec-09 14:32N 60°10' E 024°58'0 0.0
2016-Dec-09 13:32N 60°10' E 024°58'0 0.0
2016-Dec-09 12:32N 60°10' E 024°58'0 0.0
2016-Dec-09 11:32N 60°10' E 024°58'0 0.0
2016-Dec-09 10:32N 60°10' E 024°58'0 0.0
2016-Dec-09 09:32N 60°10' E 024°58'0 0.0
2016-Dec-09 08:32N 60°10' E 024°58'6 6.4
2016-Dec-09 07:34N 60°04' E 024°58'2216.7
2016-Dec-09 06:14N 59°50' E 024°22'1217.8
2016-Dec-09 05:33N 59°47' E 023°60'1817.8
2016-Dec-09 04:33N 59°42' E 023°25'4017.8
2016-Dec-09 02:19N 59°33' E 022°09'1317.5
2016-Dec-09 01:33N 59°32' E 021°42'10011.9
2016-Dec-08 17:09N 59°27' E 018°26'6 9.3
2016-Dec-08 16:33N 59°22' E 018°27'1010.2
2016-Dec-08 15:33N 59°19' E 018°08'1 0.8
2016-Dec-08 14:29N 59°19' E 018°06'0 0.0
2016-Dec-08 13:32N 59°19' E 018°06'0 0.0
2016-Dec-08 12:32N 59°19' E 018°06'0 0.0
2016-Dec-08 11:32N 59°19' E 018°06'0 0.0
2016-Dec-08 10:32N 59°19' E 018°06'0 0.0
2016-Dec-08 09:32N 59°19' E 018°06'2 2.2
2016-Dec-08 08:33N 59°19' E 018°10'11 7.5
2016-Dec-08 07:05N 59°27' E 018°26'8210.4
2016-Dec-07 23:12N 59°37' E 021°06'1117.1
2016-Dec-07 22:32N 59°34' E 021°28'1716.9
2016-Dec-07 21:33N 59°32' E 022°01'4017.2
2016-Dec-07 19:13N 59°40' E 023°19'1117.4
2016-Dec-07 18:33N 59°43' E 023°41'10 0.8
2016-Dec-07 05:33N 59°47' E 023°60'1817.8
2016-Dec-07 04:33N 59°42' E 023°25'3617.8
2016-Dec-07 02:31N 59°34' E 022°15'1717.6
2016-Dec-07 01:33N 59°32' E 021°42'9911.9
2016-Dec-06 17:12N 59°29' E 018°27'6 9.7
2016-Dec-06 16:33N 59°23' E 018°27'1010.1
2016-Dec-06 15:34N 59°19' E 018°08'1 1.3
2016-Dec-06 14:32N 59°19' E 018°06'0 0.0
2016-Dec-06 13:32N 59°19' E 018°06'0 0.0
2016-Dec-06 12:32N 59°19' E 018°06'0 0.0
2016-Dec-06 11:32N 59°19' E 018°06'0 0.0
2016-Dec-06 10:32N 59°19' E 018°06'0 0.0
2016-Dec-06 09:32N 59°19' E 018°06'2 2.2
2016-Dec-06 08:33N 59°19' E 018°10'9 7.2
2016-Dec-06 07:16N 59°26' E 018°23'9310.7
2016-Dec-05 22:33N 59°35' E 021°26'5817.2
2016-Dec-05 19:12N 59°41' E 023°19'1617.6
2016-Dec-05 18:16N 59°44' E 023°51'38 3.5
2016-Dec-05 07:29N 60°03' E 024°57'2016.9
2016-Dec-05 06:19N 59°51' E 024°25'1317.8
2016-Dec-05 05:33N 59°47' E 023°59'1817.8
2016-Dec-05 04:33N 59°42' E 023°26'3617.8
2016-Dec-05 02:33N 59°34' E 022°16'1817.7
2016-Dec-05 01:33N 59°32' E 021°42'2017.9
2016-Dec-05 00:26N 59°36' E 021°03'7911.1
2016-Dec-04 17:17N 59°29' E 018°27'7 9.9
2016-Dec-04 16:33N 59°22' E 018°27'1010.4
2016-Dec-04 15:33N 59°19' E 018°07'1 0.7
2016-Dec-04 14:30N 59°19' E 018°06'0 0.0
2016-Dec-04 13:33N 59°19' E 018°06'0 0.0
2016-Dec-04 12:33N 59°19' E 018°06'0 0.0
2016-Dec-04 11:33N 59°19' E 018°06'0 0.0
2016-Dec-04 10:33N 59°19' E 018°06'0 0.0
2016-Dec-04 09:33N 59°19' E 018°06'2 1.9
2016-Dec-04 08:34N 59°19' E 018°10'10 9.4
2016-Dec-04 07:33N 59°23' E 018°27'9210.2
2016-Dec-03 22:33N 59°35' E 021°26'1916.8
2016-Dec-03 21:25N 59°33' E 022°03'3817.2
2016-Dec-03 19:13N 59°41' E 023°16'1217.5
2016-Dec-03 18:33N 59°44' E 023°39'3617.8
2016-Dec-03 16:31N 59°57' E 024°46'1414.9
2016-Dec-03 15:34N 60°10' E 024°58'0 0.2
2016-Dec-03 14:32N 60°10' E 024°58'0 0.0
2016-Dec-03 13:32N 60°10' E 024°58'0 0.0
2016-Dec-03 12:32N 60°10' E 024°58'0 0.0
2016-Dec-03 11:32N 60°10' E 024°58'0 0.0
2016-Dec-03 10:32N 60°10' E 024°58'0 0.0
2016-Dec-03 09:32N 60°10' E 024°58'0 0.0
2016-Dec-03 08:32N 60°10' E 024°58'6 6.3
2016-Dec-03 07:33N 60°04' E 024°57'2016.8
2016-Dec-03 06:22N 59°51' E 024°26'1517.8
2016-Dec-03 05:32N 59°47' E 023°58'1817.9
2016-Dec-03 04:33N 59°42' E 023°24'3617.9
2016-Dec-03 02:33N 59°34' E 022°15'1717.7
2016-Dec-03 01:33N 59°32' E 021°41'9911.8
2016-Dec-02 17:12N 59°29' E 018°27'6 9.6
2016-Dec-02 16:33N 59°23' E 018°27'1010.0
2016-Dec-02 15:33N 59°19' E 018°08'1 1.2
2016-Dec-02 14:30N 59°19' E 018°06'0 0.0
2016-Dec-02 13:33N 59°19' E 018°06'0 0.0
2016-Dec-02 12:33N 59°19' E 018°06'0 0.0
2016-Dec-02 11:33N 59°19' E 018°06'0 0.0
2016-Dec-02 10:33N 59°19' E 018°06'0 0.0
2016-Dec-02 09:33N 59°19' E 018°06'2 2.2
2016-Dec-02 08:34N 59°19' E 018°10'9 9.2
2016-Dec-02 07:32N 59°24' E 018°27'81 9.7
2016-Dec-01 23:10N 59°37' E 021°04'1016.9
2016-Dec-01 22:33N 59°35' E 021°24'1716.9
2016-Dec-01 21:33N 59°32' E 021°57'3517.3
2016-Dec-01 19:31N 59°40' E 023°05'1617.2
2016-Dec-01 18:33N 59°44' E 023°37'1817.8
2016-Dec-01 17:33N 59°49' E 024°11'  
Track history (hours):
 
Tides and Currents Weather Stations Pressure Air Temp Water Temp Dewpoint Dewpoint Depression Visibility Wind Speed Wind Dir Waves Ship Positions

Gabriella

Last reported at 2016-Dec-11 13:32 UTC. Time now 2016-Dec-11 14:05 UTC.
Position N 60°10' E 024°58'.

Length 172 m; draft 6.5 m.

Type: Ship (hazmat cat A). MMSI: 230361000.

Date/timePositionNaut miles runAvg speedWind from/ knotsBaromVisibWave heightAir tempDewpointWater temp
2016-Dec-11 13:32N 60°10' E 024°58'0 0.0
2016-Dec-11 12:32N 60°10' E 024°58'0 0.0
2016-Dec-11 11:32N 60°10' E 024°58'0 0.0
2016-Dec-11 10:32N 60°10' E 024°58'0 0.0
2016-Dec-11 09:32N 60°10' E 024°58'0 0.0
2016-Dec-11 08:26N 60°10' E 024°58'6 6.9
2016-Dec-11 07:33N 60°04' E 024°58'2216.8
2016-Dec-11 06:15N 59°51' E 024°23'1217.9
2016-Dec-11 05:33N 59°47' E 023°59'1817.8
2016-Dec-11 04:33N 59°42' E 023°25'3617.9
2016-Dec-11 02:32N 59°34' E 022°15'1717.7
2016-Dec-11 01:33N 59°32' E 021°42'9911.9
2016-Dec-10 17:14N 59°28' E 018°26'7 9.7
2016-Dec-10 16:33N 59°22' E 018°27'1010.2
2016-Dec-10 15:34N 59°19' E 018°08'1 0.9
2016-Dec-10 14:33N 59°19' E 018°06'0 0.0
2016-Dec-10 13:33N 59°19' E 018°06'0 0.0
2016-Dec-10 12:33N 59°19' E 018°06'0 0.0
2016-Dec-10 11:33N 59°19' E 018°06'0 0.0
2016-Dec-10 10:33N 59°19' E 018°06'0 0.0
2016-Dec-10 09:33N 59°19' E 018°06'2 2.1
2016-Dec-10 08:33N 59°19' E 018°10'10 9.1
2016-Dec-10 07:30N 59°24' E 018°27'9310.4
2016-Dec-09 22:33N 59°34' E 021°29'5717.2
2016-Dec-09 19:13N 59°41' E 023°21'1217.4
2016-Dec-09 18:33N 59°44' E 023°43'3517.3
2016-Dec-09 16:33N 59°57' E 024°47'1414.0
2016-Dec-09 15:34N 60°10' E 024°58'0 0.1
2016-Dec-09 14:32N 60°10' E 024°58'0 0.0
2016-Dec-09 13:32N 60°10' E 024°58'0 0.0
2016-Dec-09 12:32N 60°10' E 024°58'0 0.0
2016-Dec-09 11:32N 60°10' E 024°58'0 0.0
2016-Dec-09 10:32N 60°10' E 024°58'0 0.0
2016-Dec-09 09:32N 60°10' E 024°58'0 0.0
2016-Dec-09 08:32N 60°10' E 024°58'6 6.4
2016-Dec-09 07:34N 60°04' E 024°58'2216.7
2016-Dec-09 06:14N 59°50' E 024°22'1217.8
2016-Dec-09 05:33N 59°47' E 023°60'1817.8
2016-Dec-09 04:33N 59°42' E 023°25'4017.8
2016-Dec-09 02:19N 59°33' E 022°09'1317.5
2016-Dec-09 01:33N 59°32' E 021°42'10011.9
2016-Dec-08 17:09N 59°27' E 018°26'6 9.3
2016-Dec-08 16:33N 59°22' E 018°27'1010.2
2016-Dec-08 15:33N 59°19' E 018°08'1 0.8
2016-Dec-08 14:29N 59°19' E 018°06'0 0.0
2016-Dec-08 13:32N 59°19' E 018°06'0 0.0
2016-Dec-08 12:32N 59°19' E 018°06'0 0.0
2016-Dec-08 11:32N 59°19' E 018°06'0 0.0
2016-Dec-08 10:32N 59°19' E 018°06'0 0.0
2016-Dec-08 09:32N 59°19' E 018°06'2 2.2
2016-Dec-08 08:33N 59°19' E 018°10'11 7.5
2016-Dec-08 07:05N 59°27' E 018°26'8210.4
2016-Dec-07 23:12N 59°37' E 021°06'1117.1
2016-Dec-07 22:32N 59°34' E 021°28'1716.9
2016-Dec-07 21:33N 59°32' E 022°01'4017.2
2016-Dec-07 19:13N 59°40' E 023°19'1117.4
2016-Dec-07 18:33N 59°43' E 023°41'10 0.8
2016-Dec-07 05:33N 59°47' E 023°60'1817.8
2016-Dec-07 04:33N 59°42' E 023°25'3617.8
2016-Dec-07 02:31N 59°34' E 022°15'1717.6
2016-Dec-07 01:33N 59°32' E 021°42'9911.9
2016-Dec-06 17:12N 59°29' E 018°27'6 9.7
2016-Dec-06 16:33N 59°23' E 018°27'1010.1
2016-Dec-06 15:34N 59°19' E 018°08'1 1.3
2016-Dec-06 14:32N 59°19' E 018°06'0 0.0
2016-Dec-06 13:32N 59°19' E 018°06'0 0.0
2016-Dec-06 12:32N 59°19' E 018°06'0 0.0
2016-Dec-06 11:32N 59°19' E 018°06'0 0.0
2016-Dec-06 10:32N 59°19' E 018°06'0 0.0
2016-Dec-06 09:32N 59°19' E 018°06'2 2.2
2016-Dec-06 08:33N 59°19' E 018°10'9 7.2
2016-Dec-06 07:16N 59°26' E 018°23'9310.7
2016-Dec-05 22:33N 59°35' E 021°26'5817.2
2016-Dec-05 19:12N 59°41' E 023°19'1617.6
2016-Dec-05 18:16N 59°44' E 023°51'38 3.5
2016-Dec-05 07:29N 60°03' E 024°57'2016.9
2016-Dec-05 06:19N 59°51' E 024°25'1317.8
2016-Dec-05 05:33N 59°47' E 023°59'1817.8
2016-Dec-05 04:33N 59°42' E 023°26'3617.8
2016-Dec-05 02:33N 59°34' E 022°16'1817.7
2016-Dec-05 01:33N 59°32' E 021°42'2017.9
2016-Dec-05 00:26N 59°36' E 021°03'7911.1
2016-Dec-04 17:17N 59°29' E 018°27'7 9.9
2016-Dec-04 16:33N 59°22' E 018°27'1010.4
2016-Dec-04 15:33N 59°19' E 018°07'1 0.7
2016-Dec-04 14:30N 59°19' E 018°06'0 0.0
2016-Dec-04 13:33N 59°19' E 018°06'0 0.0
2016-Dec-04 12:33N 59°19' E 018°06'0 0.0
2016-Dec-04 11:33N 59°19' E 018°06'0 0.0
2016-Dec-04 10:33N 59°19' E 018°06'0 0.0
2016-Dec-04 09:33N 59°19' E 018°06'2 1.9
2016-Dec-04 08:34N 59°19' E 018°10'10 9.4
2016-Dec-04 07:33N 59°23' E 018°27'9210.2
2016-Dec-03 22:33N 59°35' E 021°26'1916.8
2016-Dec-03 21:25N 59°33' E 022°03'3817.2
2016-Dec-03 19:13N 59°41' E 023°16'1217.5
2016-Dec-03 18:33N 59°44' E 023°39'3617.8
2016-Dec-03 16:31N 59°57' E 024°46'1414.9
2016-Dec-03 15:34N 60°10' E 024°58'0 0.2
2016-Dec-03 14:32N 60°10' E 024°58'0 0.0
2016-Dec-03 13:32N 60°10' E 024°58'0 0.0
2016-Dec-03 12:32N 60°10' E 024°58'0 0.0
2016-Dec-03 11:32N 60°10' E 024°58'0 0.0
2016-Dec-03 10:32N 60°10' E 024°58'0 0.0
2016-Dec-03 09:32N 60°10' E 024°58'0 0.0
2016-Dec-03 08:32N 60°10' E 024°58'6 6.3
2016-Dec-03 07:33N 60°04' E 024°57'2016.8
2016-Dec-03 06:22N 59°51' E 024°26'1517.8
2016-Dec-03 05:32N 59°47' E 023°58'1817.9
2016-Dec-03 04:33N 59°42' E 023°24'3617.9
2016-Dec-03 02:33N 59°34' E 022°15'1717.7
2016-Dec-03 01:33N 59°32' E 021°41'9911.8
2016-Dec-02 17:12N 59°29' E 018°27'6 9.6
2016-Dec-02 16:33N 59°23' E 018°27'1010.0
2016-Dec-02 15:33N 59°19' E 018°08'1 1.2
2016-Dec-02 14:30N 59°19' E 018°06'0 0.0
2016-Dec-02 13:33N 59°19' E 018°06'0 0.0
2016-Dec-02 12:33N 59°19' E 018°06'0 0.0
2016-Dec-02 11:33N 59°19' E 018°06'0 0.0
2016-Dec-02 10:33N 59°19' E 018°06'0 0.0
2016-Dec-02 09:33N 59°19' E 018°06'2 2.2
2016-Dec-02 08:34N 59°19' E 018°10'9 9.2
2016-Dec-02 07:32N 59°24' E 018°27'81 9.7
2016-Dec-01 23:10N 59°37' E 021°04'1016.9
2016-Dec-01 22:33N 59°35' E 021°24'1716.9
2016-Dec-01 21:33N 59°32' E 021°57'3517.3
2016-Dec-01 19:31N 59°40' E 023°05'1617.2
2016-Dec-01 18:33N 59°44' E 023°37'1817.8
2016-Dec-01 17:33N 59°49' E 024°11'  

Dump ship's entire track history